sensor_id;sensor_type;location;lat;lon;timestamp;pressure;altitude;pressure_sealevel;temperature
67966;BMP280;54749;47.850;9.002;2024-02-26T00:01:10;94014.81;;;5.25
67966;BMP280;54749;47.850;9.002;2024-02-26T00:03:53;94003.22;;;5.24
67966;BMP280;54749;47.850;9.002;2024-02-26T00:06:21;94004.00;;;5.25
67966;BMP280;54749;47.850;9.002;2024-02-26T00:08:49;94005.88;;;5.23
67966;BMP280;54749;47.850;9.002;2024-02-26T00:11:16;94008.38;;;5.23
67966;BMP280;54749;47.850;9.002;2024-02-26T00:13:43;94005.19;;;5.21
67966;BMP280;54749;47.850;9.002;2024-02-26T00:16:10;94010.88;;;5.23
67966;BMP280;54749;47.850;9.002;2024-02-26T00:18:37;94001.78;;;5.22
67966;BMP280;54749;47.850;9.002;2024-02-26T00:21:07;94003.63;;;5.20
67966;BMP280;54749;47.850;9.002;2024-02-26T00:23:34;93991.09;;;5.20
67966;BMP280;54749;47.850;9.002;2024-02-26T00:26:02;93996.91;;;5.21
67966;BMP280;54749;47.850;9.002;2024-02-26T00:28:31;93996.91;;;5.21
67966;BMP280;54749;47.850;9.002;2024-02-26T00:30:58;93986.88;;;5.21
67966;BMP280;54749;47.850;9.002;2024-02-26T00:33:25;93990.19;;;5.21
67966;BMP280;54749;47.850;9.002;2024-02-26T00:35:53;93990.06;;;5.23
67966;BMP280;54749;47.850;9.002;2024-02-26T00:38:20;93988.34;;;5.23
67966;BMP280;54749;47.850;9.002;2024-02-26T00:40:47;93983.47;;;5.22
67966;BMP280;54749;47.850;9.002;2024-02-26T00:43:14;93981.63;;;5.24
67966;BMP280;54749;47.850;9.002;2024-02-26T00:45:41;93981.63;;;5.24
67966;BMP280;54749;47.850;9.002;2024-02-26T00:48:08;93991.66;;;5.24
67966;BMP280;54749;47.850;9.002;2024-02-26T00:50:36;93985.69;;;5.24
67966;BMP280;54749;47.850;9.002;2024-02-26T00:53:03;93994.78;;;5.25
67966;BMP280;54749;47.850;9.002;2024-02-26T00:55:30;93989.78;;;5.25
67966;BMP280;54749;47.850;9.002;2024-02-26T00:57:57;93994.16;;;5.24
67966;BMP280;54749;47.850;9.002;2024-02-26T01:00:25;93991.09;;;5.20
67966;BMP280;54749;47.850;9.002;2024-02-26T01:02:52;93998.47;;;5.22
67966;BMP280;54749;47.850;9.002;2024-02-26T01:05:19;93995.31;;;5.20
67966;BMP280;54749;47.850;9.002;2024-02-26T01:07:46;93989.38;;;5.21
67966;BMP280;54749;47.850;9.002;2024-02-26T01:10:13;93996.91;;;5.21
67966;BMP280;54749;47.850;9.002;2024-02-26T01:12:40;93986.88;;;5.21
67966;BMP280;54749;47.850;9.002;2024-02-26T01:15:08;93990.44;;;5.18
67966;BMP280;54749;47.850;9.002;2024-02-26T01:17:36;93986.75;;;5.22
67966;BMP280;54749;47.850;9.002;2024-02-26T01:20:04;93985.69;;;5.24
67966;BMP280;54749;47.850;9.002;2024-02-26T01:22:31;93984.91;;;5.24
67966;BMP280;54749;47.850;9.002;2024-02-26T01:24:59;93981.88;;;5.21
67966;BMP280;54749;47.850;9.002;2024-02-26T01:27:26;93989.38;;;5.21
67966;BMP280;54749;47.850;9.002;2024-02-26T01:29:54;93995.69;;;5.15
67966;BMP280;54749;47.850;9.002;2024-02-26T01:32:21;93986.34;;;5.17
67966;BMP280;54749;47.850;9.002;2024-02-26T01:34:49;93997.56;;;5.23
67966;BMP280;54749;47.850;9.002;2024-02-26T01:37:16;93997.28;;;5.25
67966;BMP280;54749;47.850;9.002;2024-02-26T01:39:43;93999.16;;;5.24
67966;BMP280;54749;47.850;9.002;2024-02-26T01:42:10;93982.66;;;5.21
67966;BMP280;54749;47.850;9.002;2024-02-26T01:44:37;93983.75;;;5.19
67966;BMP280;54749;47.850;9.002;2024-02-26T01:47:10;93985.56;;;5.17
67966;BMP280;54749;47.850;9.002;2024-02-26T01:49:39;93983.84;;;5.17
67966;BMP280;54749;47.850;9.002;2024-02-26T01:52:08;93985.56;;;5.17
67966;BMP280;54749;47.850;9.002;2024-02-26T01:54:37;93994.53;;;5.19
67966;BMP280;54749;47.850;9.002;2024-02-26T01:57:06;93994.78;;;5.16
67966;BMP280;54749;47.850;9.002;2024-02-26T01:59:34;93994.00;;;5.16
67966;BMP280;54749;47.850;9.002;2024-02-26T02:02:05;93987.28;;;5.16
67966;BMP280;54749;47.850;9.002;2024-02-26T02:04:34;93985.56;;;5.17
67966;BMP280;54749;47.850;9.002;2024-02-26T02:07:01;93985.56;;;5.17
67966;BMP280;54749;47.850;9.002;2024-02-26T02:09:30;93978.72;;;5.19
67966;BMP280;54749;47.850;9.002;2024-02-26T02:11:58;93973.16;;;5.15
67966;BMP280;54749;47.850;9.002;2024-02-26T02:14:25;93980.84;;;5.14
67966;BMP280;54749;47.850;9.002;2024-02-26T02:16:53;93993.19;;;5.15
67966;BMP280;54749;47.850;9.002;2024-02-26T02:19:20;93992.16;;;5.18
67966;BMP280;54749;47.850;9.002;2024-02-26T02:21:47;94000.59;;;5.17
67966;BMP280;54749;47.850;9.002;2024-02-26T02:24:14;93993.06;;;5.17
67966;BMP280;54749;47.850;9.002;2024-02-26T02:26:41;93986.25;;;5.19
67966;BMP280;54749;47.850;9.002;2024-02-26T02:29:09;93999.28;;;5.22
67966;BMP280;54749;47.850;9.002;2024-02-26T02:31:36;94001.66;;;5.24
67966;BMP280;54749;47.850;9.002;2024-02-26T02:34:04;93995.72;;;5.24
67966;BMP280;54749;47.850;9.002;2024-02-26T02:36:31;94011.41;;;5.26
67966;BMP280;54749;47.850;9.002;2024-02-26T02:38:58;93998.09;;;5.26
67966;BMP280;54749;47.850;9.002;2024-02-26T02:41:25;94009.53;;;5.28
67966;BMP280;54749;47.850;9.002;2024-02-26T02:43:54;94016.13;;;5.29
67966;BMP280;54749;47.850;9.002;2024-02-26T02:46:21;94016.94;;;5.30
67966;BMP280;54749;47.850;9.002;2024-02-26T02:48:48;94011.81;;;5.31
67966;BMP280;54749;47.850;9.002;2024-02-26T02:51:15;94010.09;;;5.32
67966;BMP280;54749;47.850;9.002;2024-02-26T02:53:43;94005.88;;;5.32
67966;BMP280;54749;47.850;9.002;2024-02-26T02:56:10;94003.38;;;5.32
67966;BMP280;54749;47.850;9.002;2024-02-26T02:58:38;94000.09;;;5.32
67966;BMP280;54749;47.850;9.002;2024-02-26T03:01:04;94004.28;;;5.31
67966;BMP280;54749;47.850;9.002;2024-02-26T03:03:32;94012.72;;;5.30
67966;BMP280;54749;47.850;9.002;2024-02-26T03:05:59;94005.31;;;5.29
67966;BMP280;54749;47.850;9.002;2024-02-26T03:08:26;94009.53;;;5.28
67966;BMP280;54749;47.850;9.002;2024-02-26T03:10:53;94018.78;;;5.28
67966;BMP280;54749;47.850;9.002;2024-02-26T03:13:21;94015.34;;;5.29
67966;BMP280;54749;47.850;9.002;2024-02-26T03:15:48;94009.53;;;5.28
67966;BMP280;54749;47.850;9.002;2024-02-26T03:18:15;94012.19;;;5.27
67966;BMP280;54749;47.850;9.002;2024-02-26T03:20:42;94009.81;;;5.25
67966;BMP280;54749;47.850;9.002;2024-02-26T03:23:10;94007.44;;;5.24
67966;BMP280;54749;47.850;9.002;2024-02-26T03:25:39;94009.94;;;5.24
67966;BMP280;54749;47.850;9.002;2024-02-26T03:28:07;94010.88;;;5.23
67966;BMP280;54749;47.850;9.002;2024-02-26T03:30:34;93998.09;;;5.17
67966;BMP280;54749;47.850;9.002;2024-02-26T03:33:01;94003.09;;;5.17
67966;BMP280;54749;47.850;9.002;2024-02-26T03:35:29;94011.91;;;5.21
67966;BMP280;54749;47.850;9.002;2024-02-26T03:37:56;93999.41;;;5.21
67966;BMP280;54749;47.850;9.002;2024-02-26T03:40:23;93989.53;;;5.10
67966;BMP280;54749;47.850;9.002;2024-02-26T03:42:51;93971.06;;;5.11
67966;BMP280;54749;47.850;9.002;2024-02-26T03:45:20;93952.38;;;5.15
67966;BMP280;54749;47.850;9.002;2024-02-26T03:47:48;93960.53;;;5.17
67966;BMP280;54749;47.850;9.002;2024-02-26T03:50:15;93964.50;;;5.19
67966;BMP280;54749;47.850;9.002;2024-02-26T03:52:43;93941.44;;;5.16
67966;BMP280;54749;47.850;9.002;2024-02-26T03:55:10;93935.78;;;5.14
67966;BMP280;54749;47.850;9.002;2024-02-26T03:57:37;93911.78;;;5.02
67966;BMP280;54749;47.850;9.002;2024-02-26T04:00:05;93926.53;;;4.87
67966;BMP280;54749;47.850;9.002;2024-02-26T04:02:39;93927.06;;;4.90
67966;BMP280;54749;47.850;9.002;2024-02-26T04:05:09;93938.53;;;4.92
67966;BMP280;54749;47.850;9.002;2024-02-26T04:07:37;93926.28;;;4.89
67966;BMP280;54749;47.850;9.002;2024-02-26T04:10:08;93915.09;;;4.75
67966;BMP280;54749;47.850;9.002;2024-02-26T04:12:41;93908.50;;;4.74
67966;BMP280;54749;47.850;9.002;2024-02-26T04:15:09;93905.88;;;4.75
67966;BMP280;54749;47.850;9.002;2024-02-26T04:17:37;93894.41;;;4.82
67966;BMP280;54749;47.850;9.002;2024-02-26T04:20:06;93903.38;;;4.94
67966;BMP280;54749;47.850;9.002;2024-02-26T04:22:33;93897.03;;;4.99
67966;BMP280;54749;47.850;9.002;2024-02-26T04:25:00;93900.22;;;5.01
67966;BMP280;54749;47.850;9.002;2024-02-26T04:27:28;93903.63;;;5.00
67966;BMP280;54749;47.850;9.002;2024-02-26T04:29:55;93925.88;;;5.03
67966;BMP280;54749;47.850;9.002;2024-02-26T04:32:23;93925.66;;;5.06
67966;BMP280;54749;47.850;9.002;2024-02-26T04:34:49;93943.69;;;5.09
67966;BMP280;54749;47.850;9.002;2024-02-26T04:37:17;93956.44;;;5.16
67966;BMP280;54749;47.850;9.002;2024-02-26T04:39:44;93972.78;;;5.20
67966;BMP280;54749;47.850;9.002;2024-02-26T04:42:15;93977.03;;;5.19
67966;BMP280;54749;47.850;9.002;2024-02-26T04:44:42;93984.66;;;5.18
67966;BMP280;54749;47.850;9.002;2024-02-26T04:47:09;93993.19;;;5.15
67966;BMP280;54749;47.850;9.002;2024-02-26T04:49:36;93991.75;;;5.13
67966;BMP280;54749;47.850;9.002;2024-02-26T04:52:03;93997.94;;;5.09
67966;BMP280;54749;47.850;9.002;2024-02-26T04:54:31;93993.75;;;5.09
67966;BMP280;54749;47.850;9.002;2024-02-26T04:56:58;94009.28;;;5.13
67966;BMP280;54749;47.850;9.002;2024-02-26T04:59:25;94014.81;;;5.16
67966;BMP280;54749;47.850;9.002;2024-02-26T05:01:53;94014.81;;;5.16
67966;BMP280;54749;47.850;9.002;2024-02-26T05:04:20;94021.94;;;5.21
67966;BMP280;54749;47.850;9.002;2024-02-26T05:06:47;94024.19;;;5.24
67966;BMP280;54749;47.850;9.002;2024-02-26T05:09:14;94034.06;;;5.25
67966;BMP280;54749;47.850;9.002;2024-02-26T05:11:42;94045.66;;;5.26
67966;BMP280;54749;47.850;9.002;2024-02-26T05:14:09;94045.78;;;5.24
67966;BMP280;54749;47.850;9.002;2024-02-26T05:16:36;94045.13;;;5.23
67966;BMP280;54749;47.850;9.002;2024-02-26T05:19:03;94053.28;;;5.15
67966;BMP280;54749;47.850;9.002;2024-02-26T05:21:31;94045.13;;;5.13
67966;BMP280;54749;47.850;9.002;2024-02-26T05:23:58;94052.50;;;5.15
67966;BMP280;54749;47.850;9.002;2024-02-26T05:26:25;94061.56;;;5.16
67966;BMP280;54749;47.850;9.002;2024-02-26T05:28:52;94054.06;;;5.16
67966;BMP280;54749;47.850;9.002;2024-02-26T05:31:19;94054.06;;;5.16
67966;BMP280;54749;47.850;9.002;2024-02-26T05:33:46;94044.03;;;5.16
67966;BMP280;54749;47.850;9.002;2024-02-26T05:36:21;94043.00;;;5.09
67966;BMP280;54749;47.850;9.002;2024-02-26T05:38:49;94048.28;;;5.06
67966;BMP280;54749;47.850;9.002;2024-02-26T05:41:17;94034.56;;;5.10
67966;BMP280;54749;47.850;9.002;2024-02-26T05:43:50;94023.38;;;5.14
67966;BMP280;54749;47.850;9.002;2024-02-26T05:46:18;94026.41;;;5.17
67966;BMP280;54749;47.850;9.002;2024-02-26T05:48:50;94045.25;;;5.21
67966;BMP280;54749;47.850;9.002;2024-02-26T05:51:18;94047.50;;;5.24
67966;BMP280;54749;47.850;9.002;2024-02-26T05:53:46;94044.06;;;5.25
67966;BMP280;54749;47.850;9.002;2024-02-26T05:56:22;94049.22;;;5.24
67966;BMP280;54749;47.850;9.002;2024-02-26T05:58:49;94045.78;;;5.24
67966;BMP280;54749;47.850;9.002;2024-02-26T06:01:16;94037.63;;;5.23
67966;BMP280;54749;47.850;9.002;2024-02-26T06:03:44;94036.03;;;5.22
67966;BMP280;54749;47.850;9.002;2024-02-26T06:06:12;94039.72;;;5.27
67966;BMP280;54749;47.850;9.002;2024-02-26T06:08:42;94033.66;;;5.29
67966;BMP280;54749;47.850;9.002;2024-02-26T06:11:10;94036.97;;;5.30
67966;BMP280;54749;47.850;9.002;2024-02-26T06:13:37;94041.19;;;5.29
67966;BMP280;54749;47.850;9.002;2024-02-26T06:16:04;94043.69;;;5.29
67966;BMP280;54749;47.850;9.002;2024-02-26T06:18:31;94055.97;;;5.32
67966;BMP280;54749;47.850;9.002;2024-02-26T06:20:59;94050.69;;;5.35
67966;BMP280;54749;47.850;9.002;2024-02-26T06:23:26;94050.56;;;5.37
67966;BMP280;54749;47.850;9.002;2024-02-26T06:25:53;94049.22;;;5.33
67966;BMP280;54749;47.850;9.002;2024-02-26T06:28:20;94055.97;;;5.32
67966;BMP280;54749;47.850;9.002;2024-02-26T06:30:48;94071.34;;;5.37
67966;BMP280;54749;47.850;9.002;2024-02-26T06:33:15;94053.59;;;5.40
67966;BMP280;54749;47.850;9.002;2024-02-26T06:35:42;94050.00;;;5.33
67966;BMP280;54749;47.850;9.002;2024-02-26T06:38:10;94046.59;;;5.34
67966;BMP280;54749;47.850;9.002;2024-02-26T06:40:39;94057.81;;;5.40
67966;BMP280;54749;47.850;9.002;2024-02-26T06:43:07;94067.84;;;5.49
67966;BMP280;54749;47.850;9.002;2024-02-26T06:45:34;94086.81;;;5.60
67966;BMP280;54749;47.850;9.002;2024-02-26T06:48:01;94097.66;;;5.70
67966;BMP280;54749;47.850;9.002;2024-02-26T06:50:30;94091.88;;;5.79
67966;BMP280;54749;47.850;9.002;2024-02-26T06:52:57;94094.22;;;5.90
67966;BMP280;54749;47.850;9.002;2024-02-26T06:55:24;94096.34;;;6.03
67966;BMP280;54749;47.850;9.002;2024-02-26T06:57:51;94080.22;;;6.15
67966;BMP280;54749;47.850;9.002;2024-02-26T07:00:18;94096.44;;;6.29
67966;BMP280;54749;47.850;9.002;2024-02-26T07:02:45;94095.72;;;6.46
67966;BMP280;54749;47.850;9.002;2024-02-26T07:05:13;94095.41;;;6.67
67966;BMP280;54749;47.850;9.002;2024-02-26T07:07:40;94089.75;;;7.01
67966;BMP280;54749;47.850;9.002;2024-02-26T07:10:07;94084.97;;;7.68
67966;BMP280;54749;47.850;9.002;2024-02-26T07:12:35;94104.09;;;8.29
67966;BMP280;54749;47.850;9.002;2024-02-26T07:15:02;94093.72;;;8.74
67966;BMP280;54749;47.850;9.002;2024-02-26T07:17:29;94074.63;;;8.96
67966;BMP280;54749;47.850;9.002;2024-02-26T07:19:57;94081.53;;;8.94
67966;BMP280;54749;47.850;9.002;2024-02-26T07:22:24;94071.66;;;8.75
67966;BMP280;54749;47.850;9.002;2024-02-26T07:24:51;94063.44;;;8.66
67966;BMP280;54749;47.850;9.002;2024-02-26T07:27:18;94045.63;;;8.92
67966;BMP280;54749;47.850;9.002;2024-02-26T07:29:46;94044.97;;;8.82
67966;BMP280;54749;47.850;9.002;2024-02-26T07:32:13;94057.88;;;8.30
67966;BMP280;54749;47.850;9.002;2024-02-26T07:34:41;94060.59;;;8.19
67966;BMP280;54749;47.850;9.002;2024-02-26T07:37:08;94062.78;;;8.14
67966;BMP280;54749;47.850;9.002;2024-02-26T07:39:36;94065.72;;;8.10
67966;BMP280;54749;47.850;9.002;2024-02-26T07:42:06;94077.19;;;8.05
67966;BMP280;54749;47.850;9.002;2024-02-26T07:44:34;94074.44;;;7.98
67966;BMP280;54749;47.850;9.002;2024-02-26T07:47:01;94084.38;;;8.00
67966;BMP280;54749;47.850;9.002;2024-02-26T07:49:28;94081.69;;;8.01
67966;BMP280;54749;47.850;9.002;2024-02-26T07:51:55;94084.38;;;8.00
67966;BMP280;54749;47.850;9.002;2024-02-26T07:54:25;94091.50;;;7.95
67966;BMP280;54749;47.850;9.002;2024-02-26T07:56:52;94086.44;;;7.87
67966;BMP280;54749;47.850;9.002;2024-02-26T07:59:19;94091.66;;;7.76
67966;BMP280;54749;47.850;9.002;2024-02-26T08:01:52;94093.53;;;7.74
67966;BMP280;54749;47.850;9.002;2024-02-26T08:04:24;94091.66;;;7.76
67966;BMP280;54749;47.850;9.002;2024-02-26T08:06:53;94097.72;;;7.83
67966;BMP280;54749;47.850;9.002;2024-02-26T08:09:21;94102.19;;;7.97
67966;BMP280;54749;47.850;9.002;2024-02-26T08:11:48;94096.84;;;8.26
67966;BMP280;54749;47.850;9.002;2024-02-26T08:14:16;94104.72;;;8.73
67966;BMP280;54749;47.850;9.002;2024-02-26T08:16:43;94087.22;;;9.77
67966;BMP280;54749;47.850;9.002;2024-02-26T08:19:10;94080.47;;;10.47
67966;BMP280;54749;47.850;9.002;2024-02-26T08:21:41;94080.59;;;10.53
67966;BMP280;54749;47.850;9.002;2024-02-26T08:24:08;94087.56;;;11.65
67966;BMP280;54749;47.850;9.002;2024-02-26T08:26:35;94083.09;;;12.98
67966;BMP280;54749;47.850;9.002;2024-02-26T08:29:02;94077.22;;;14.44
67966;BMP280;54749;47.850;9.002;2024-02-26T08:31:30;94065.28;;;14.03
67966;BMP280;54749;47.850;9.002;2024-02-26T08:33:57;94076.66;;;13.59
67966;BMP280;54749;47.850;9.002;2024-02-26T08:36:26;94087.28;;;13.20
67966;BMP280;54749;47.850;9.002;2024-02-26T08:38:53;94079.56;;;14.04
67966;BMP280;54749;47.850;9.002;2024-02-26T08:41:20;94069.88;;;14.55
67966;BMP280;54749;47.850;9.002;2024-02-26T08:43:48;94076.72;;;15.02
67966;BMP280;54749;47.850;9.002;2024-02-26T08:46:15;94075.50;;;16.16
67966;BMP280;54749;47.850;9.002;2024-02-26T08:48:42;94069.78;;;18.15
67966;BMP280;54749;47.850;9.002;2024-02-26T08:51:10;94067.13;;;19.59
67966;BMP280;54749;47.850;9.002;2024-02-26T08:53:38;94073.66;;;18.90
67966;BMP280;54749;47.850;9.002;2024-02-26T08:56:10;94073.94;;;18.46
67966;BMP280;54749;47.850;9.002;2024-02-26T08:58:45;94085.06;;;18.58
67966;BMP280;54749;47.850;9.002;2024-02-26T09:01:15;94077.28;;;18.10
67966;BMP280;54749;47.850;9.002;2024-02-26T09:03:43;94076.50;;;17.54
67966;BMP280;54749;47.850;9.002;2024-02-26T09:06:11;94070.28;;;16.81
67966;BMP280;54749;47.850;9.002;2024-02-26T09:08:39;94085.25;;;15.94
67966;BMP280;54749;47.850;9.002;2024-02-26T09:11:06;94084.72;;;16.17
67966;BMP280;54749;47.850;9.002;2024-02-26T09:13:33;94072.91;;;18.23
67966;BMP280;54749;47.850;9.002;2024-02-26T09:16:00;94074.38;;;19.62
67966;BMP280;54749;47.850;9.002;2024-02-26T09:18:28;94062.06;;;21.47
67966;BMP280;54749;47.850;9.002;2024-02-26T09:20:56;94060.91;;;22.27
67966;BMP280;54749;47.850;9.002;2024-02-26T09:23:23;94070.56;;;21.14
67966;BMP280;54749;47.850;9.002;2024-02-26T09:25:50;94085.22;;;20.96
67966;BMP280;54749;47.850;9.002;2024-02-26T09:28:17;94085.25;;;18.93
67966;BMP280;54749;47.850;9.002;2024-02-26T09:30:45;94102.94;;;19.18
67966;BMP280;54749;47.850;9.002;2024-02-26T09:33:13;94085.59;;;20.31
67966;BMP280;54749;47.850;9.002;2024-02-26T09:35:40;94089.63;;;18.56
67966;BMP280;54749;47.850;9.002;2024-02-26T09:38:08;94075.94;;;19.63
67966;BMP280;54749;47.850;9.002;2024-02-26T09:40:36;94071.63;;;20.10
67966;BMP280;54749;47.850;9.002;2024-02-26T09:43:05;94072.91;;;19.72
67966;BMP280;54749;47.850;9.002;2024-02-26T09:45:33;94090.94;;;18.64
67966;BMP280;54749;47.850;9.002;2024-02-26T09:48:02;94083.66;;;18.61
67966;BMP280;54749;47.850;9.002;2024-02-26T09:50:31;94085.88;;;17.72
67966;BMP280;54749;47.850;9.002;2024-02-26T09:52:59;94092.31;;;17.13
67966;BMP280;54749;47.850;9.002;2024-02-26T09:55:26;94094.00;;;16.49
67966;BMP280;54749;47.850;9.002;2024-02-26T09:57:55;94081.88;;;16.70
67966;BMP280;54749;47.850;9.002;2024-02-26T10:00:23;94079.91;;;16.79
67966;BMP280;54749;47.850;9.002;2024-02-26T10:02:53;94087.59;;;15.95
67966;BMP280;54749;47.850;9.002;2024-02-26T10:05:24;94079.72;;;15.90
67966;BMP280;54749;47.850;9.002;2024-02-26T10:07:52;94077.84;;;16.05
67966;BMP280;54749;47.850;9.002;2024-02-26T10:10:19;94085.53;;;16.24
67966;BMP280;54749;47.850;9.002;2024-02-26T10:12:46;94087.69;;;16.33
67966;BMP280;54749;47.850;9.002;2024-02-26T10:15:13;94081.41;;;16.16
67966;BMP280;54749;47.850;9.002;2024-02-26T10:17:41;94090.06;;;16.41
67966;BMP280;54749;47.850;9.002;2024-02-26T10:20:16;94077.75;;;16.69
67966;BMP280;54749;47.850;9.002;2024-02-26T10:22:49;94079.13;;;16.59
67966;BMP280;54749;47.850;9.002;2024-02-26T10:25:16;94067.28;;;16.20
67966;BMP280;54749;47.850;9.002;2024-02-26T10:27:45;94060.66;;;15.74
67966;BMP280;54749;47.850;9.002;2024-02-26T10:30:20;94071.13;;;15.12
67966;BMP280;54749;47.850;9.002;2024-02-26T10:32:49;94080.28;;;15.07
67966;BMP280;54749;47.850;9.002;2024-02-26T10:35:18;94084.72;;;14.99
67966;BMP280;54749;47.850;9.002;2024-02-26T10:37:46;94082.81;;;14.80
67966;BMP280;54749;47.850;9.002;2024-02-26T10:40:14;94097.34;;;14.66
67966;BMP280;54749;47.850;9.002;2024-02-26T10:42:42;94099.41;;;14.36
67966;BMP280;54749;47.850;9.002;2024-02-26T10:45:09;94095.91;;;14.37
67966;BMP280;54749;47.850;9.002;2024-02-26T10:47:37;94106.63;;;14.32
67966;BMP280;54749;47.850;9.002;2024-02-26T10:50:06;94101.78;;;14.37
67966;BMP280;54749;47.850;9.002;2024-02-26T10:52:36;94104.63;;;14.48
67966;BMP280;54749;47.850;9.002;2024-02-26T10:55:05;94109.59;;;14.36
67966;BMP280;54749;47.850;9.002;2024-02-26T10:57:39;94113.94;;;14.41
67966;BMP280;54749;47.850;9.002;2024-02-26T11:00:08;94104.06;;;14.32
67966;BMP280;54749;47.850;9.002;2024-02-26T11:02:41;94105.94;;;14.24
67966;BMP280;54749;47.850;9.002;2024-02-26T11:05:08;94124.31;;;14.26
67966;BMP280;54749;47.850;9.002;2024-02-26T11:07:36;94130.56;;;14.23
67966;BMP280;54749;47.850;9.002;2024-02-26T11:10:04;94132.06;;;14.18
67966;BMP280;54749;47.850;9.002;2024-02-26T11:12:34;94133.19;;;14.16
67966;BMP280;54749;47.850;9.002;2024-02-26T11:15:04;94129.19;;;14.07
67966;BMP280;54749;47.850;9.002;2024-02-26T11:17:32;94129.50;;;13.98
67966;BMP280;54749;47.850;9.002;2024-02-26T11:20:01;94134.75;;;13.82
67966;BMP280;54749;47.850;9.002;2024-02-26T11:22:31;94128.38;;;13.72
67966;BMP280;54749;47.850;9.002;2024-02-26T11:24:59;94132.94;;;13.62
67966;BMP280;54749;47.850;9.002;2024-02-26T11:27:31;94138.69;;;13.56
67966;BMP280;54749;47.850;9.002;2024-02-26T11:30:01;94136.78;;;13.58
67966;BMP280;54749;47.850;9.002;2024-02-26T11:32:30;94144.56;;;13.57
67966;BMP280;54749;47.850;9.002;2024-02-26T11:35:00;94142.28;;;13.62
67966;BMP280;54749;47.850;9.002;2024-02-26T11:37:28;94142.66;;;13.59
67966;BMP280;54749;47.850;9.002;2024-02-26T11:39:58;94140.44;;;13.56
67966;BMP280;54749;47.850;9.002;2024-02-26T11:42:26;94148.84;;;13.56
67966;BMP280;54749;47.850;9.002;2024-02-26T11:44:53;94137.81;;;13.64
67966;BMP280;54749;47.850;9.002;2024-02-26T11:47:23;94140.88;;;13.73
67966;BMP280;54749;47.850;9.002;2024-02-26T11:49:50;94136.75;;;13.72
67966;BMP280;54749;47.850;9.002;2024-02-26T11:52:17;94133.19;;;13.81
67966;BMP280;54749;47.850;9.002;2024-02-26T11:54:51;94145.25;;;13.79
67966;BMP280;54749;47.850;9.002;2024-02-26T11:57:29;94138.34;;;13.73
67966;BMP280;54749;47.850;9.002;2024-02-26T12:02:39;94134.50;;;13.63
67966;BMP280;54749;47.850;9.002;2024-02-26T12:05:09;94134.22;;;13.72
67966;BMP280;54749;47.850;9.002;2024-02-26T12:07:40;94136.19;;;13.84
67966;BMP280;54749;47.850;9.002;2024-02-26T12:10:16;94141.31;;;13.91
67966;BMP280;54749;47.850;9.002;2024-02-26T12:12:43;94141.47;;;14.03
67966;BMP280;54749;47.850;9.002;2024-02-26T12:15:10;94130.13;;;14.20
67966;BMP280;54749;47.850;9.002;2024-02-26T12:17:38;94127.63;;;14.40
67966;BMP280;54749;47.850;9.002;2024-02-26T12:20:10;94130.88;;;14.55
67966;BMP280;54749;47.850;9.002;2024-02-26T12:22:39;94130.63;;;14.71
67966;BMP280;54749;47.850;9.002;2024-02-26T12:25:10;94133.69;;;14.87
67966;BMP280;54749;47.850;9.002;2024-02-26T12:27:37;94127.31;;;14.90
67966;BMP280;54749;47.850;9.002;2024-02-26T12:30:05;94133.91;;;15.06
67966;BMP280;54749;47.850;9.002;2024-02-26T12:32:34;94136.06;;;15.08
67966;BMP280;54749;47.850;9.002;2024-02-26T12:35:02;94136.13;;;15.15
67966;BMP280;54749;47.850;9.002;2024-02-26T12:37:29;94135.72;;;14.71
67966;BMP280;54749;47.850;9.002;2024-02-26T12:39:56;94140.97;;;14.69
67966;BMP280;54749;47.850;9.002;2024-02-26T12:42:24;94129.44;;;14.67
67966;BMP280;54749;47.850;9.002;2024-02-26T12:44:52;94142.38;;;14.72
67966;BMP280;54749;47.850;9.002;2024-02-26T12:47:19;94144.41;;;14.82
67966;BMP280;54749;47.850;9.002;2024-02-26T12:49:47;94142.53;;;15.11
67966;BMP280;54749;47.850;9.002;2024-02-26T12:52:16;94146.28;;;15.15
67966;BMP280;54749;47.850;9.002;2024-02-26T12:54:44;94152.03;;;15.03
67966;BMP280;54749;47.850;9.002;2024-02-26T12:57:11;94151.69;;;15.06
67966;BMP280;54749;47.850;9.002;2024-02-26T12:59:39;94155.69;;;15.14
67966;BMP280;54749;47.850;9.002;2024-02-26T13:02:07;94159.13;;;15.34
67966;BMP280;54749;47.850;9.002;2024-02-26T13:04:34;94141.97;;;15.15
67966;BMP280;54749;47.850;9.002;2024-02-26T13:07:05;94144.66;;;15.07
67966;BMP280;54749;47.850;9.002;2024-02-26T13:09:33;94148.28;;;15.19
67966;BMP280;54749;47.850;9.002;2024-02-26T13:12:05;94138.31;;;15.24
67966;BMP280;54749;47.850;9.002;2024-02-26T13:14:33;94137.25;;;15.12
67966;BMP280;54749;47.850;9.002;2024-02-26T13:17:03;94144.41;;;15.23
67966;BMP280;54749;47.850;9.002;2024-02-26T13:19:31;94139.72;;;15.26
67966;BMP280;54749;47.850;9.002;2024-02-26T13:22:06;94139.97;;;15.11
67966;BMP280;54749;47.850;9.002;2024-02-26T13:24:34;94138.13;;;15.25
67966;BMP280;54749;47.850;9.002;2024-02-26T13:27:02;94127.47;;;15.09
67966;BMP280;54749;47.850;9.002;2024-02-26T13:29:33;94139.56;;;14.87
67966;BMP280;54749;47.850;9.002;2024-02-26T13:32:01;94133.22;;;14.56
67966;BMP280;54749;47.850;9.002;2024-02-26T13:34:29;94124.03;;;14.55
67966;BMP280;54749;47.850;9.002;2024-02-26T13:36:58;94119.16;;;14.54
67966;BMP280;54749;47.850;9.002;2024-02-26T13:39:27;94127.19;;;14.57
67966;BMP280;54749;47.850;9.002;2024-02-26T13:41:54;94127.00;;;14.59
67966;BMP280;54749;47.850;9.002;2024-02-26T13:44:22;94117.44;;;14.61
67966;BMP280;54749;47.850;9.002;2024-02-26T13:46:50;94116.47;;;14.62
67966;BMP280;54749;47.850;9.002;2024-02-26T13:49:17;94119.16;;;14.54
67966;BMP280;54749;47.850;9.002;2024-02-26T13:51:44;94120.25;;;14.45
67966;BMP280;54749;47.850;9.002;2024-02-26T13:54:11;94117.31;;;14.28
67966;BMP280;54749;47.850;9.002;2024-02-26T13:56:41;94119.31;;;14.32
67966;BMP280;54749;47.850;9.002;2024-02-26T13:59:12;94118.03;;;14.42
67966;BMP280;54749;47.850;9.002;2024-02-26T14:01:39;94118.03;;;14.42
67966;BMP280;54749;47.850;9.002;2024-02-26T14:04:06;94116.72;;;14.46
67966;BMP280;54749;47.850;9.002;2024-02-26T14:06:36;94111.41;;;14.62
67966;BMP280;54749;47.850;9.002;2024-02-26T14:09:04;94111.41;;;14.62
67966;BMP280;54749;47.850;9.002;2024-02-26T14:11:31;94118.28;;;14.47
67966;BMP280;54749;47.850;9.002;2024-02-26T14:13:58;94118.91;;;14.49
67966;BMP280;54749;47.850;9.002;2024-02-26T14:16:26;94121.19;;;14.24
67966;BMP280;54749;47.850;9.002;2024-02-26T14:18:57;94123.50;;;14.19
67966;BMP280;54749;47.850;9.002;2024-02-26T14:21:24;94113.19;;;14.06
67966;BMP280;54749;47.850;9.002;2024-02-26T14:23:52;94114.16;;;14.05